createdAt,value
2023-02-03T00:01:49.925Z,70.76465
2023-02-03T00:03:49.373Z,72.11523
2023-02-03T00:05:49.482Z,72.96875
2023-02-03T00:07:49.679Z,72.90137
2023-02-03T00:09:49.592Z,72.24316
2023-02-03T00:11:49.361Z,71.6709
2023-02-03T00:13:49.318Z,71.23535
2023-02-03T00:15:49.284Z,72.01465
2023-02-03T00:17:49.558Z,72.26563
2023-02-03T00:19:49.498Z,71.90625
2023-02-03T00:21:49.593Z,71.82324
2023-02-03T00:23:49.584Z,71.78809
2023-02-03T00:25:49.562Z,71.71973
2023-02-03T00:27:49.714Z,71.69434
2023-02-03T00:29:49.456Z,71.78516
2023-02-03T00:32:24.824Z,71.51563
2023-02-03T00:34:24.492Z,71.46191
2023-02-03T00:36:24.274Z,71.19629
2023-02-03T00:38:24.299Z,71.60059
2023-02-03T00:40:24.949Z,71.95996
2023-02-03T00:42:24.392Z,71.75391
2023-02-03T00:44:24.264Z,71.42188
2023-02-03T00:47:54.350Z,72.44434
2023-02-03T00:49:54.335Z,71.82324
2023-02-03T00:51:54.335Z,72.89648
2023-02-03T00:53:54.350Z,73.57324
2023-02-03T00:55:54.336Z,73.37207
2023-02-03T00:57:54.392Z,74.16992
2023-02-03T00:59:54.373Z,74.21387
2023-02-03T01:03:01.760Z,74.9502
2023-02-03T01:05:01.617Z,76.0459
2023-02-03T01:07:01.557Z,77.07813
2023-02-03T01:09:01.618Z,76.875
2023-02-03T01:11:01.806Z,76.45898
2023-02-03T01:13:01.834Z,76.16602
2023-02-03T01:15:01.823Z,76.15918
2023-02-03T01:18:30.575Z,79.30371
2023-02-03T01:20:30.505Z,78.97461
2023-02-03T01:22:30.828Z,80.08887
2023-02-03T01:24:30.674Z,79.30957
2023-02-03T01:26:30.630Z,78.72559
2023-02-03T01:28:30.653Z,78.2793
2023-02-03T01:30:31.032Z,77.69727
2023-02-03T01:33:05.979Z,76.82422
2023-02-03T01:35:05.925Z,75.97461
2023-02-03T01:37:05.971Z,75.58203
2023-02-03T01:39:05.948Z,75.56152
2023-02-03T01:41:05.928Z,75.0498
2023-02-03T01:43:05.917Z,75.03906
2023-02-03T01:45:06.015Z,74.59863
2023-02-03T01:48:41.836Z,74.08008
2023-02-03T01:50:41.792Z,74.26563
2023-02-03T01:52:41.889Z,73.76465
2023-02-03T01:54:41.846Z,74.93066
2023-02-03T01:56:41.806Z,74.41113
2023-02-03T01:58:41.809Z,74.61816
2023-02-03T02:00:41.842Z,74.72266
2023-02-03T02:03:26.233Z,74.69629
2023-02-03T02:05:26.297Z,73.99609
2023-02-03T02:07:26.201Z,74.27051
2023-02-03T02:09:26.245Z,74.37109
2023-02-03T02:11:26.189Z,74.66797
2023-02-03T02:13:26.188Z,75.0498
2023-02-03T02:15:26.236Z,74.67773
2023-02-03T02:18:56.495Z,74.86914
2023-02-03T02:20:56.629Z,75.32715
2023-02-03T02:22:56.494Z,75.78223
2023-02-03T02:24:56.422Z,75.55664
2023-02-03T02:26:56.489Z,75.50391
2023-02-03T02:28:56.406Z,75.24121
2023-02-03T02:30:56.616Z,74.84961
2023-02-03T02:33:45.717Z,74.125
2023-02-03T02:35:45.738Z,75.0293
2023-02-03T02:37:45.748Z,74.38477
2023-02-03T02:39:45.673Z,75.0625
2023-02-03T02:41:45.692Z,75.51758
2023-02-03T02:43:45.739Z,75.87598
2023-02-03T02:45:45.709Z,75.90332
2023-02-03T02:49:25.413Z,76.11914
2023-02-03T02:51:25.492Z,76.19141
2023-02-03T02:53:25.402Z,76.07227
2023-02-03T02:55:25.390Z,76.27246
2023-02-03T02:57:25.388Z,76.68652
2023-02-03T02:59:25.451Z,76.67969
2023-02-03T03:01:25.535Z,76.99609
2023-02-03T03:04:21.143Z,77.1416
2023-02-03T03:06:20.908Z,77.18066
2023-02-03T03:08:20.872Z,76.58105
2023-02-03T03:10:20.685Z,76.33008
2023-02-03T03:12:20.703Z,76.39355
2023-02-03T03:14:20.708Z,76.52832
2023-02-03T03:16:20.914Z,76.54297
2023-02-03T03:19:43.656Z,76.33203
2023-02-03T03:21:43.667Z,76.53906
2023-02-03T03:23:43.719Z,76.81836
2023-02-03T03:25:43.822Z,76.53418
2023-02-03T03:27:43.697Z,76.47656
2023-02-03T03:29:43.678Z,76.57129
2023-02-03T03:31:44.016Z,75.91602
2023-02-03T03:35:01.197Z,74.60645
2023-02-03T03:37:01.182Z,75.04297
2023-02-03T03:39:01.627Z,75.33691
2023-02-03T03:41:01.622Z,74.28418
2023-02-03T03:43:01.258Z,74.22266
2023-02-03T03:45:01.157Z,74.06152
2023-02-03T03:47:01.106Z,74.1084
2023-02-03T03:49:43.032Z,74.18262
2023-02-03T03:51:42.982Z,74.62207
2023-02-03T03:53:42.949Z,74.16895
2023-02-03T03:55:42.987Z,74.24414
2023-02-03T03:57:42.966Z,74.35156
2023-02-03T03:59:42.999Z,74.10352
2023-02-03T04:01:43.322Z,74.0625
2023-02-03T04:05:17.855Z,74.2002
2023-02-03T04:07:17.692Z,73.97754
2023-02-03T04:09:17.672Z,74.66016
2023-02-03T04:11:17.722Z,74.78125
2023-02-03T04:13:17.797Z,74.12012
2023-02-03T04:15:17.674Z,74.14941
2023-02-03T04:17:18.130Z,74.1582
2023-02-03T04:20:31.110Z,74.65137
2023-02-03T04:22:31.061Z,74.23535
2023-02-03T04:24:31.258Z,73.77441
2023-02-03T04:26:31.074Z,73.84863
2023-02-03T04:28:31.068Z,73.89258
2023-02-03T04:30:31.134Z,74.05078
2023-02-03T04:32:31.046Z,73.80176
2023-02-03T04:34:55.164Z,73.45313
2023-02-03T04:36:55.171Z,72.95117
2023-02-03T04:38:55.148Z,72.79102
2023-02-03T04:40:55.152Z,72.62402
2023-02-03T04:42:55.255Z,72.58984
2023-02-03T04:44:55.155Z,72.45508
2023-02-03T04:46:55.298Z,72.34668
2023-02-03T04:48:55.201Z,72.27148
2023-02-03T04:50:55.452Z,71.94434
2023-02-03T04:52:55.514Z,71.60254
2023-02-03T04:54:55.326Z,71.6084
2023-02-03T04:56:55.320Z,71.83008
2023-02-03T04:58:55.544Z,71.86328
2023-02-03T05:00:55.558Z,71.7207
2023-02-03T05:02:55.425Z,71.85938
2023-02-03T05:05:31.686Z,71.7373
2023-02-03T05:07:31.802Z,72.1748
2023-02-03T05:09:31.745Z,71.80664
2023-02-03T05:11:31.650Z,72.21191
2023-02-03T05:13:31.702Z,72.0625
2023-02-03T05:15:31.861Z,71.91699
2023-02-03T05:17:31.671Z,72.25293
2023-02-03T05:20:30.657Z,72.32617
2023-02-03T05:22:30.700Z,72.25879
2023-02-03T05:24:30.702Z,72.20898
2023-02-03T05:26:30.655Z,71.90137
2023-02-03T05:28:30.681Z,72.12012
2023-02-03T05:30:31.104Z,72.08984
2023-02-03T05:32:31.046Z,72.21875
2023-02-03T05:36:25.909Z,71.89746
2023-02-03T05:38:25.853Z,72.15137
2023-02-03T05:40:27.202Z,71.66504
2023-02-03T05:42:26.355Z,71.59961
2023-02-03T05:44:26.007Z,71.90039
2023-02-03T05:46:26.015Z,71.62793
2023-02-03T05:48:26.044Z,71.41406
2023-02-03T05:50:53.075Z,71.42285
2023-02-03T05:52:53.089Z,71.67676
2023-02-03T05:54:53.029Z,71.77832
2023-02-03T05:56:53.031Z,71.4082
2023-02-03T05:58:53.395Z,71.38184
2023-02-03T06:00:53.110Z,71.68945
2023-02-03T06:02:53.036Z,71.68359
2023-02-03T06:06:47.177Z,71.31055
2023-02-03T06:08:47.413Z,71.01074
2023-02-03T06:10:47.224Z,71.39844
2023-02-03T06:12:47.072Z,70.97754
2023-02-03T06:14:47.276Z,71.1582
2023-02-03T06:16:47.478Z,70.89844
2023-02-03T06:18:47.112Z,71.30273
2023-02-03T06:21:49.767Z,71.16113
2023-02-03T06:23:49.761Z,71.08789
2023-02-03T06:25:49.852Z,71.23926
2023-02-03T06:27:49.699Z,71.04004
2023-02-03T06:29:49.666Z,71.52734
2023-02-03T06:31:49.890Z,71.38184
2023-02-03T06:33:49.601Z,70.69141
2023-02-03T06:36:30.020Z,71.33398
2023-02-03T06:38:30.023Z,70.97754
2023-02-03T06:40:31.193Z,71.12793
2023-02-03T06:42:29.978Z,71.42871
2023-02-03T06:44:29.937Z,71.16309
2023-02-03T06:46:30.379Z,71.62598
2023-02-03T06:48:29.998Z,71.38379
2023-02-03T06:51:49.503Z,71.70215
2023-02-03T06:53:49.520Z,71.36328
2023-02-03T06:55:49.547Z,71.75586
2023-02-03T06:57:49.988Z,71.50098
2023-02-03T06:59:49.551Z,71.44922
2023-02-03T07:01:50.218Z,71.77441
2023-02-03T07:03:49.744Z,72.1123
2023-02-03T07:07:23.838Z,72.02148
2023-02-03T07:09:23.945Z,71.30566
2023-02-03T07:11:24.025Z,71.34668
2023-02-03T07:13:23.965Z,72.1748
2023-02-03T07:15:24.063Z,70.25586
2023-02-03T07:17:23.964Z,68.94434
2023-02-03T07:19:23.924Z,69.11035
2023-02-03T07:22:05.144Z,67.09473
2023-02-03T07:24:05.240Z,69.65527
2023-02-03T07:26:05.270Z,67.86816
2023-02-03T07:28:05.524Z,66.08301
2023-02-03T07:30:05.429Z,66.91992
2023-02-03T07:32:05.610Z,65.51172
2023-02-03T07:34:05.278Z,65.74316
2023-02-03T07:37:16.590Z,65.54688
2023-02-03T07:39:16.387Z,64.96973
2023-02-03T07:41:18.418Z,66.32031
2023-02-03T07:43:16.255Z,65.13379
2023-02-03T07:45:16.567Z,64.8623
2023-02-03T07:47:16.437Z,63.78027
2023-02-03T07:49:16.332Z,65.24512
2023-02-03T07:52:05.386Z,63.90332
2023-02-03T07:54:05.518Z,64.60352
2023-02-03T07:56:05.406Z,64.22363
2023-02-03T07:58:05.403Z,64.24902
2023-02-03T08:00:05.431Z,63.57715
2023-02-03T08:02:05.592Z,63.66504
2023-02-03T08:04:05.454Z,65.36035
2023-02-03T08:06:05.232Z,65.34668
2023-02-03T08:07:13.611Z,64.39355
2023-02-03T08:09:13.676Z,65.04199
2023-02-03T08:11:13.724Z,63.63379
2023-02-03T08:13:13.770Z,62.95996
2023-02-03T08:15:13.961Z,64.66602
2023-02-03T08:17:14.093Z,62.52441
2023-02-03T08:19:13.614Z,61.79102
2023-02-03T08:21:13.674Z,61.38281
2023-02-03T08:22:47.773Z,60.9502
2023-02-03T08:24:47.792Z,61.59668
2023-02-03T08:26:47.938Z,60.88184
2023-02-03T08:28:47.872Z,59.59375
2023-02-03T08:30:48.083Z,59.78809
2023-02-03T08:32:47.929Z,58.71973
2023-02-03T08:34:47.824Z,60.70801
2023-02-03T08:37:35.627Z,58.50977
2023-02-03T08:39:35.671Z,59.39453
2023-02-03T08:41:35.513Z,59.28613
2023-02-03T08:43:35.744Z,58.79004
2023-02-03T08:45:35.839Z,58.44043
2023-02-03T08:47:35.645Z,58.63672
2023-02-03T08:49:35.809Z,56.00195
2023-02-03T08:51:35.632Z,56.4541
2023-02-03T08:52:57.475Z,56.9707
2023-02-03T08:54:57.492Z,56.93848
2023-02-03T08:56:57.381Z,56.76855
2023-02-03T08:58:57.314Z,61.35156
2023-02-03T09:00:57.400Z,58.69141
2023-02-03T09:02:57.403Z,58.70703
2023-02-03T09:04:57.414Z,56.84863
2023-02-03T09:08:41.882Z,58.34473
2023-02-03T09:10:41.896Z,59.99121
2023-02-03T09:12:41.872Z,58.99609
2023-02-03T09:14:41.857Z,59.01367
2023-02-03T09:16:42.266Z,61.44043
2023-02-03T09:18:42.066Z,59.95703
2023-02-03T09:20:42.052Z,59.16016
2023-02-03T09:23:30.684Z,61.37793
2023-02-03T09:25:30.866Z,60.1416
2023-02-03T09:27:31.145Z,61.1084
2023-02-03T09:29:30.938Z,58.64355
2023-02-03T09:31:30.952Z,59.67285
2023-02-03T09:33:30.816Z,60.08984
2023-02-03T09:35:30.906Z,58.97266
2023-02-03T09:38:19.783Z,58.72754
2023-02-03T09:40:19.775Z,58.15723
2023-02-03T09:42:19.815Z,57.7373
2023-02-03T09:44:19.813Z,55.90723
2023-02-03T09:46:19.925Z,56.83398
2023-02-03T09:48:19.965Z,54.27637
2023-02-03T09:50:19.909Z,56.55566
2023-02-03T09:53:55.779Z,56.00195
2023-02-03T09:55:55.803Z,56.18848
2023-02-03T09:57:56.009Z,53.90723
2023-02-03T09:59:56.966Z,53.20508
2023-02-03T10:01:55.749Z,53.16895
2023-02-03T10:03:55.721Z,53.98633
2023-02-03T10:05:55.758Z,54.0293
2023-02-03T10:08:52.979Z,54.375
2023-02-03T10:10:52.637Z,55.15137
2023-02-03T10:12:52.554Z,54.26465
2023-02-03T10:14:52.538Z,54.97559
2023-02-03T10:16:52.762Z,56.43164
2023-02-03T10:18:52.667Z,56.27832
2023-02-03T10:20:52.553Z,55.07324
2023-02-03T10:23:42.970Z,54.39551
2023-02-03T10:25:42.773Z,49.59668
2023-02-03T10:27:42.988Z,48.44727
2023-02-03T10:29:42.767Z,52.27539
2023-02-03T10:31:43.259Z,52.56836
2023-02-03T10:33:42.736Z,51.89258
2023-02-03T10:35:42.694Z,51.78516
2023-02-03T10:37:42.797Z,53.65234
2023-02-03T10:38:53.632Z,51.98828
2023-02-03T10:40:53.747Z,52.27148
2023-02-03T10:42:53.657Z,53.05176
2023-02-03T10:44:53.493Z,51.88867
2023-02-03T10:46:53.488Z,51.8457
2023-02-03T10:48:53.562Z,49.62598
2023-02-03T10:50:53.716Z,50.46875
2023-02-03T10:52:53.549Z,47.55957
2023-02-03T10:54:22.745Z,46.59082
2023-02-03T10:56:22.683Z,47.31445
2023-02-03T10:58:22.737Z,48.1377
2023-02-03T11:00:23.169Z,47.11523
2023-02-03T11:02:22.980Z,50.21777
2023-02-03T11:04:22.868Z,47.64258
2023-02-03T11:06:22.772Z,49.59473
2023-02-03T11:09:51.723Z,49.10254
2023-02-03T11:11:51.739Z,49.48047
2023-02-03T11:13:51.663Z,48.30957
2023-02-03T11:15:51.710Z,46.99414
2023-02-03T11:17:51.601Z,48.57031
2023-02-03T11:19:51.612Z,45.83301
2023-02-03T11:21:51.719Z,50.9502
2023-02-03T11:25:09.150Z,46.66992
2023-02-03T11:27:09.193Z,47.96289
2023-02-03T11:29:09.300Z,45.46094
2023-02-03T11:31:09.546Z,45.47949
2023-02-03T11:33:09.792Z,44.63965
2023-02-03T11:35:09.900Z,44.29297
2023-02-03T11:37:09.587Z,45.18555
2023-02-03T11:39:40.565Z,46.56152
2023-02-03T11:41:40.693Z,46.31836
2023-02-03T11:43:40.506Z,45.29883
2023-02-03T11:45:40.551Z,44.67871
2023-02-03T11:47:40.570Z,43.39258
2023-02-03T11:49:40.754Z,41.50586
2023-02-03T11:51:40.720Z,43.70215
2023-02-03T11:54:56.531Z,41.50586
2023-02-03T11:56:56.471Z,43.8457
2023-02-03T11:58:57.060Z,42.42871
2023-02-03T12:00:56.659Z,45.22363
2023-02-03T12:02:56.696Z,43.09375
2023-02-03T12:04:56.794Z,43.66699
2023-02-03T12:06:56.485Z,42.12891
2023-02-03T12:10:01.510Z,43.11719
2023-02-03T12:12:01.713Z,44.21289
2023-02-03T12:14:01.627Z,44.6377
2023-02-03T12:16:01.746Z,44.02539
2023-02-03T12:18:01.550Z,43.28613
2023-02-03T12:20:01.501Z,41.91309
2023-02-03T12:22:01.502Z,42.61816
2023-02-03T12:25:29.331Z,44.36523
2023-02-03T12:27:29.537Z,44.63574
2023-02-03T12:29:32.550Z,43.51758
2023-02-03T12:31:29.552Z,45.15039
2023-02-03T12:33:29.429Z,47.32324
2023-02-03T12:35:32.219Z,45.76074
2023-02-03T12:37:29.201Z,46.99707
2023-02-03T12:40:33.127Z,49.76563
2023-02-03T12:42:32.917Z,46.14844
2023-02-03T12:44:32.889Z,47.46387
2023-02-03T12:46:32.902Z,48.01172
2023-02-03T12:48:32.858Z,46.10742
2023-02-03T12:50:33.103Z,46.75098
2023-02-03T12:52:33.230Z,47.64648
2023-02-03T12:56:05.121Z,47.13965
2023-02-03T12:58:05.100Z,46.31445
2023-02-03T13:00:05.113Z,46.96973
2023-02-03T13:02:05.139Z,45.47266
2023-02-03T13:04:05.035Z,46.92188
2023-02-03T13:06:05.272Z,46.66797
2023-02-03T13:08:05.063Z,45.53613
2023-02-03T13:11:25.438Z,47.69629
2023-02-03T13:13:25.339Z,46.24121
2023-02-03T13:15:25.416Z,46.46875
2023-02-03T13:17:25.317Z,46.51758
2023-02-03T13:19:25.513Z,46.21387
2023-02-03T13:21:25.478Z,45.76953
2023-02-03T13:23:25.288Z,46.74609
2023-02-03T13:25:53.521Z,45.71289
2023-02-03T13:27:53.594Z,45.40234
2023-02-03T13:29:53.496Z,45.09863
2023-02-03T13:31:54.463Z,45.58398
2023-02-03T13:33:53.511Z,44.95703
2023-02-03T13:35:53.428Z,47.50684
2023-02-03T13:37:53.459Z,46.76465
2023-02-03T13:40:55.511Z,45.59668
2023-02-03T13:42:55.573Z,45.0791
2023-02-03T13:44:55.483Z,45.41406
2023-02-03T13:46:55.566Z,45.16016
2023-02-03T13:48:55.643Z,44.04785
2023-02-03T13:50:55.531Z,45.05078
2023-02-03T13:52:57.582Z,45.64941
2023-02-03T13:54:55.482Z,45.62207
2023-02-03T13:56:43.860Z,45.33984
2023-02-03T13:58:43.806Z,47.34473
2023-02-03T14:00:44.004Z,46.29688
2023-02-03T14:02:43.928Z,47.87988
2023-02-03T14:04:44.212Z,48.72656
2023-02-03T14:06:43.870Z,47.68164
2023-02-03T14:08:43.897Z,47.1543
2023-02-03T14:11:58.044Z,47.04688
2023-02-03T14:13:58.058Z,46.89648
2023-02-03T14:15:58.017Z,47.4873
2023-02-03T14:17:58.038Z,47.77246
2023-02-03T14:19:58.055Z,47.88574
2023-02-03T14:21:58.506Z,49.00879
2023-02-03T14:23:58.066Z,47.08691
2023-02-03T14:26:53.811Z,47.2041
2023-02-03T14:28:54.270Z,47.3623
2023-02-03T14:30:54.054Z,48.08301
2023-02-03T14:32:53.739Z,47.78027
2023-02-03T14:34:53.824Z,47.375
2023-02-03T14:36:53.699Z,47.4668
2023-02-03T14:38:53.731Z,47.86816
2023-02-03T14:42:22.742Z,47.87598
2023-02-03T14:44:22.681Z,46.93262
2023-02-03T14:46:22.880Z,47.99512
2023-02-03T14:48:22.929Z,47.2666
2023-02-03T14:50:22.900Z,47.00195
2023-02-03T14:52:22.705Z,47.69531
2023-02-03T14:54:22.844Z,45.43945
2023-02-03T14:57:12.491Z,46.66895
2023-02-03T14:59:12.450Z,47.32227
2023-02-03T15:01:12.554Z,48.08496
2023-02-03T15:03:12.468Z,47.88477
2023-02-03T15:05:12.753Z,47.88965
2023-02-03T15:07:12.511Z,47.28418
2023-02-03T15:09:12.478Z,48.37695
2023-02-03T15:12:10.946Z,47.32617
2023-02-03T15:14:11.117Z,48.18066
2023-02-03T15:16:10.995Z,48.9248
2023-02-03T15:18:11.063Z,48.48438
2023-02-03T15:20:11.108Z,49.10938
2023-02-03T15:22:10.647Z,48.82031
2023-02-03T15:24:10.647Z,49.39453
2023-02-03T15:27:34.433Z,50.04492
2023-02-03T15:29:34.376Z,50.36523
2023-02-03T15:31:35.080Z,50.44531
2023-02-03T15:33:34.312Z,50.56348
2023-02-03T15:35:34.389Z,50.86133
2023-02-03T15:37:34.345Z,51.16895
2023-02-03T15:39:34.375Z,51.69043
2023-02-03T15:42:44.375Z,51.80469
2023-02-03T15:44:44.349Z,51.85742
2023-02-03T15:46:44.588Z,52.39453
2023-02-03T15:48:44.379Z,51.76758
2023-02-03T15:50:44.392Z,52.54297
2023-02-03T15:52:44.314Z,52.41992
2023-02-03T15:54:44.454Z,53.24609
2023-02-03T15:57:48.096Z,53.54883
2023-02-03T15:59:48.182Z,53.3291
2023-02-03T16:01:48.448Z,53.08008
2023-02-03T16:03:48.024Z,53.0293
2023-02-03T16:05:48.253Z,53.53613
2023-02-03T16:07:48.138Z,53.44043
2023-02-03T16:09:48.154Z,53.66602
2023-02-03T16:12:45.232Z,54.46191
2023-02-03T16:14:45.249Z,54.48242
2023-02-03T16:17:04.725Z,54.50879
2023-02-03T16:18:45.246Z,54.89063
2023-02-03T16:20:45.215Z,54.75488
2023-02-03T16:22:45.228Z,54.79199
2023-02-03T16:24:45.238Z,54.69434
2023-02-03T16:28:10.216Z,55.26367
2023-02-03T16:30:10.170Z,55.44629
2023-02-03T16:32:10.418Z,55.11523
2023-02-03T16:34:10.513Z,55.21484
2023-02-03T16:36:10.163Z,55.08008
2023-02-03T16:38:10.127Z,54.78223
2023-02-03T16:40:10.140Z,55.27344
2023-02-03T16:43:35.968Z,55.90918
2023-02-03T16:45:36.579Z,55.35254
2023-02-03T16:47:35.707Z,55.8252
2023-02-03T16:49:35.786Z,55.58398
2023-02-03T16:51:35.707Z,55.64648
2023-02-03T16:53:35.751Z,55.73828
2023-02-03T16:55:35.754Z,56.46582
2023-02-03T16:58:18.861Z,56.25879
2023-02-03T17:00:18.942Z,56.24023
2023-02-03T17:02:18.815Z,56.28906
2023-02-03T17:04:18.678Z,56.14453
2023-02-03T17:06:18.610Z,56.00488
2023-02-03T17:08:18.636Z,56.32324
2023-02-03T17:10:18.652Z,56.49707
2023-02-03T17:13:54.651Z,57.24121
2023-02-03T17:15:54.325Z,56.85645
2023-02-03T17:17:56.941Z,57.12891
2023-02-03T17:19:54.275Z,56.60156
2023-02-03T17:21:54.271Z,56.40723
2023-02-03T17:23:54.352Z,56.70605
2023-02-03T17:25:54.738Z,56.87695
2023-02-03T17:28:24.335Z,57.02246
2023-02-03T17:30:24.294Z,56.35352
2023-02-03T17:32:24.333Z,57.25488
2023-02-03T17:34:24.327Z,56.74707
2023-02-03T17:36:24.355Z,56.65234
2023-02-03T17:38:24.326Z,55.71973
2023-02-03T17:53:51.127Z,57.94727
2023-02-03T17:55:51.143Z,57.64746
2023-02-03T17:57:51.061Z,57.24316
2023-02-03T17:59:40.087Z,57.7832
2023-02-03T18:01:39.950Z,58.3252
2023-02-03T18:03:39.942Z,57.8291
2023-02-03T18:05:39.963Z,57.75
2023-02-03T18:07:40.898Z,57.75879
2023-02-03T18:09:39.849Z,57.80664
2023-02-03T18:11:40.217Z,56.96973
2023-02-03T18:14:58.123Z,58.30762
2023-02-03T18:16:58.225Z,58.3418
2023-02-03T18:18:58.027Z,57.5957
2023-02-03T18:20:58.016Z,58.48047
2023-02-03T18:22:58.194Z,58.80469
2023-02-03T18:24:58.109Z,58.18359
2023-02-03T18:26:57.984Z,57.4707
2023-02-03T18:29:23.892Z,57.75391
2023-02-03T18:31:24.060Z,58.70898
2023-02-03T18:33:23.737Z,58.13086
2023-02-03T18:35:23.784Z,58.70898
2023-02-03T18:37:23.747Z,58.88184
2023-02-03T18:39:23.746Z,57.68555
2023-02-03T18:41:23.800Z,58.08496
2023-02-03T18:45:13.374Z,59.02832
2023-02-03T18:47:13.562Z,58.93555
2023-02-03T18:49:13.496Z,59.44824
2023-02-03T18:51:14.553Z,60.06738
2023-02-03T18:53:13.433Z,59.08887
2023-02-03T18:55:13.599Z,59.03711
2023-02-03T18:57:13.499Z,60.11035
2023-02-03T19:00:11.764Z,60.23828
2023-02-03T19:02:11.944Z,60.56934
2023-02-03T19:04:11.842Z,60.01953
2023-02-03T19:06:11.655Z,60.39941
2023-02-03T19:08:11.616Z,59.91113
2023-02-03T19:10:11.622Z,59.8584
2023-02-03T19:12:11.650Z,60.4082
2023-02-03T19:15:10.585Z,60.55273
2023-02-03T19:17:09.337Z,60.52148
2023-02-03T19:19:09.341Z,59.92285
2023-02-03T19:21:09.370Z,60.00488
2023-02-03T19:23:09.391Z,60.00781
2023-02-03T19:25:09.406Z,59.56055
2023-02-03T19:27:09.337Z,59.82715
2023-02-03T19:30:09.079Z,59.48438
2023-02-03T19:32:09.547Z,58.44531
2023-02-03T19:34:09.290Z,58.25
2023-02-03T19:36:09.197Z,59.05469
2023-02-03T19:38:09.180Z,59.98047
2023-02-03T19:40:09.095Z,59.7002
2023-02-03T19:42:09.216Z,59.60938
2023-02-03T19:45:57.668Z,58.98242
2023-02-03T19:47:57.773Z,58.36328
2023-02-03T19:49:57.694Z,58.24805
2023-02-03T19:51:57.685Z,58.49902
2023-02-03T19:53:57.712Z,58.5791
2023-02-03T19:55:57.789Z,58.28809
2023-02-03T19:57:57.730Z,58.20215
2023-02-03T20:00:38.313Z,57.34375
2023-02-03T20:02:38.289Z,56.68945
2023-02-03T20:04:38.288Z,57.1543
2023-02-03T20:06:38.330Z,57.52051
2023-02-03T20:08:38.405Z,56.81152
2023-02-03T20:10:38.350Z,56.87207
2023-02-03T20:12:38.184Z,57.57715
2023-02-03T20:15:32.723Z,57.05469
2023-02-03T20:17:32.720Z,56.49414
2023-02-03T20:19:32.734Z,56.80566
2023-02-03T20:21:32.900Z,56.82715
2023-02-03T20:23:32.738Z,55.42578
2023-02-03T20:25:32.675Z,55.41113
2023-02-03T20:27:32.936Z,54.76758
2023-02-03T20:31:19.804Z,54.29004
2023-02-03T20:33:19.398Z,53.69824
2023-02-03T20:35:19.409Z,53.71582
2023-02-03T20:37:19.377Z,53.53906
2023-02-03T20:39:19.365Z,53.9541
2023-02-03T20:41:19.506Z,54.30371
2023-02-03T20:43:19.389Z,53.33008
2023-02-03T20:46:02.885Z,53.77734
2023-02-03T20:48:02.937Z,52.64746
2023-02-03T20:50:02.895Z,54.05078
2023-02-03T20:52:03.057Z,54.37793
2023-02-03T20:54:02.945Z,54.20703
2023-02-03T20:56:03.009Z,53.72656
2023-02-03T20:58:02.965Z,53.44824
2023-02-03T21:01:03.879Z,52.60742
2023-02-03T21:03:03.794Z,52.99121
2023-02-03T21:05:03.777Z,52.59668
2023-02-03T21:07:03.784Z,52.35547
2023-02-03T21:09:03.873Z,52.16211
2023-02-03T21:11:03.997Z,51.22754
2023-02-03T21:13:03.825Z,52.60547
2023-02-03T21:16:33.834Z,54.86816
2023-02-03T21:18:33.726Z,54.9248
2023-02-03T21:20:33.701Z,52.28516
2023-02-03T21:22:33.729Z,53.96484
2023-02-03T21:24:33.795Z,54.66211
2023-02-03T21:26:33.689Z,54.7002
2023-02-03T21:28:33.970Z,55.34863
2023-02-03T21:31:39.838Z,55.3418
2023-02-03T21:33:39.677Z,56.15137
2023-02-03T21:35:39.668Z,54.27441
2023-02-03T21:37:39.741Z,55.64258
2023-02-03T21:39:39.657Z,55.81934
2023-02-03T21:41:39.757Z,52.50977
2023-02-03T21:43:39.813Z,53.7832
2023-02-03T21:46:52.489Z,51.90527
2023-02-03T21:48:52.566Z,51.93457
2023-02-03T21:50:52.502Z,51.93457
2023-02-03T21:52:52.533Z,52.54688
2023-02-03T21:54:52.559Z,52.64648
2023-02-03T21:56:52.522Z,52.33301
2023-02-03T21:58:52.544Z,52.03223
2023-02-03T22:02:14.558Z,50.97168
2023-02-03T22:04:14.555Z,51.31445
2023-02-03T22:06:14.683Z,51.33984
2023-02-03T22:08:14.583Z,51.49609
2023-02-03T22:10:14.837Z,51.41309
2023-02-03T22:12:14.642Z,51.49414
2023-02-03T22:14:14.564Z,51.85645
2023-02-03T22:16:52.270Z,51.57617
2023-02-03T22:18:52.308Z,51.08203
2023-02-03T22:20:52.297Z,51.22656
2023-02-03T22:22:52.175Z,50.33496
2023-02-03T22:24:52.129Z,51.67188
2023-02-03T22:26:52.118Z,52.73926
2023-02-03T22:28:52.128Z,52.99805
2023-02-03T22:30:52.260Z,53.11523
2023-02-03T22:32:45.547Z,54.39551
2023-02-03T22:34:45.483Z,54.43945
2023-02-03T22:36:45.487Z,54.4668
2023-02-03T22:38:45.465Z,55.39258
2023-02-03T22:40:45.471Z,54.67969
2023-02-03T22:42:45.528Z,54.08887
2023-02-03T22:44:45.610Z,53.05469
2023-02-03T22:47:46.448Z,51.66016
2023-02-03T22:49:46.255Z,53.54102
2023-02-03T22:51:46.332Z,51.78125
2023-02-03T22:53:46.279Z,51.58496
2023-02-03T22:55:46.318Z,52.7666
2023-02-03T22:57:48.266Z,51.3916
2023-02-03T22:59:46.247Z,51.95117
2023-02-03T23:03:10.973Z,51.89453
2023-02-03T23:05:10.705Z,51.28125
2023-02-03T23:07:10.739Z,51.10352
2023-02-03T23:09:10.738Z,51.51465
2023-02-03T23:11:10.694Z,52.22949
2023-02-03T23:13:10.743Z,52.62207
2023-02-03T23:15:10.712Z,53.64063
2023-02-03T23:17:26.732Z,52.23633
2023-02-03T23:19:26.755Z,51.52051
2023-02-03T23:21:26.637Z,52.97461
2023-02-03T23:23:26.719Z,52.67383
2023-02-03T23:25:26.672Z,52.57422
2023-02-03T23:27:26.721Z,51.60059
2023-02-03T23:29:26.674Z,51.60645
2023-02-03T23:31:27.059Z,52.57031
2023-02-03T23:32:46.922Z,53.10742
2023-02-03T23:34:46.958Z,52.05762
2023-02-03T23:36:46.886Z,52.49121
2023-02-03T23:38:46.887Z,53.50684
2023-02-03T23:40:46.913Z,52.47754
2023-02-03T23:42:46.896Z,53.52441
2023-02-03T23:44:46.917Z,51.65332
2023-02-03T23:48:26.065Z,52.08496
2023-02-03T23:50:26.089Z,52.17871
2023-02-03T23:52:25.855Z,52.47656
2023-02-03T23:54:25.861Z,52.10938
2023-02-03T23:56:25.844Z,52.37012
2023-02-03T23:58:25.824Z,52.84863
